sensor_id;sensor_type;location;lat;lon;timestamp;pressure;altitude;pressure_sealevel;temperature;humidity
54459;BME280;40368;49.350;8.152;2024-03-08T00:00:52;1001.5;;;13.42;46.11
54459;BME280;40368;49.350;8.152;2024-03-08T00:01:52;1001.5;;;13.39;46.08
54459;BME280;40368;49.350;8.152;2024-03-08T00:02:53;1001.5;;;13.36;45.12
54459;BME280;40368;49.350;8.152;2024-03-08T00:03:52;1001.5;;;13.32;45.87
54459;BME280;40368;49.350;8.152;2024-03-08T00:04:53;1001.5;;;13.31;46.42
54459;BME280;40368;49.350;8.152;2024-03-08T00:05:53;1001.5;;;13.28;46.81
54459;BME280;40368;49.350;8.152;2024-03-08T00:06:53;1001.5;;;13.24;46.68
54459;BME280;40368;49.350;8.152;2024-03-08T00:07:52;1001.5;;;13.21;46.56
54459;BME280;40368;49.350;8.152;2024-03-08T00:08:52;1001.5;;;13.21;46.82
54459;BME280;40368;49.350;8.152;2024-03-08T00:09:52;1001.5;;;13.22;46.23
54459;BME280;40368;49.350;8.152;2024-03-08T00:10:52;1001.5;;;13.21;45.04
54459;BME280;40368;49.350;8.152;2024-03-08T00:11:53;1001.5;;;13.17;45.63
54459;BME280;40368;49.350;8.152;2024-03-08T00:12:52;1001.6;;;13.17;45.52
54459;BME280;40368;49.350;8.152;2024-03-08T00:13:52;1001.5;;;13.19;46.07
54459;BME280;40368;49.350;8.152;2024-03-08T00:14:52;1001.5;;;13.23;46.19
54459;BME280;40368;49.350;8.152;2024-03-08T00:15:52;1001.5;;;13.3;46.59
54459;BME280;40368;49.350;8.152;2024-03-08T00:16:53;1001.5;;;13.33;46.49
54459;BME280;40368;49.350;8.152;2024-03-08T00:17:52;1001.5;;;13.4;46.72
54459;BME280;40368;49.350;8.152;2024-03-08T00:18:53;1001.5;;;13.45;46.75
54459;BME280;40368;49.350;8.152;2024-03-08T00:19:52;1001.5;;;13.49;46.36
54459;BME280;40368;49.350;8.152;2024-03-08T00:20:52;1001.4;;;13.49;45.72
54459;BME280;40368;49.350;8.152;2024-03-08T00:21:53;1001.5;;;13.48;46.38
54459;BME280;40368;49.350;8.152;2024-03-08T00:22:53;1001.4;;;13.48;46.02
54459;BME280;40368;49.350;8.152;2024-03-08T00:23:52;1001.4;;;13.46;45.87
54459;BME280;40368;49.350;8.152;2024-03-08T00:24:52;1001.4;;;13.47;45.76
54459;BME280;40368;49.350;8.152;2024-03-08T00:25:52;1001.4;;;13.43;45.43
54459;BME280;40368;49.350;8.152;2024-03-08T00:26:52;1001.4;;;13.41;45.64
54459;BME280;40368;49.350;8.152;2024-03-08T00:27:53;1001.4;;;13.4;46.06
54459;BME280;40368;49.350;8.152;2024-03-08T00:28:52;1001.4;;;13.41;46.05
54459;BME280;40368;49.350;8.152;2024-03-08T00:29:53;1001.4;;;13.4;45.79
54459;BME280;40368;49.350;8.152;2024-03-08T00:30:51;1001.4;;;13.37;45.74
54459;BME280;40368;49.350;8.152;2024-03-08T00:31:52;1001.4;;;13.32;45.23
54459;BME280;40368;49.350;8.152;2024-03-08T00:32:52;1001.4;;;13.29;45.77
54459;BME280;40368;49.350;8.152;2024-03-08T00:33:52;1001.4;;;13.26;45.81
54459;BME280;40368;49.350;8.152;2024-03-08T00:34:52;1001.4;;;13.25;45.53
54459;BME280;40368;49.350;8.152;2024-03-08T00:35:53;1001.4;;;13.23;45.91
54459;BME280;40368;49.350;8.152;2024-03-08T00:36:53;1001.4;;;13.21;45.89
54459;BME280;40368;49.350;8.152;2024-03-08T00:37:52;1001.4;;;13.21;45.98
54459;BME280;40368;49.350;8.152;2024-03-08T00:38:53;1001.4;;;13.19;45.83
54459;BME280;40368;49.350;8.152;2024-03-08T00:39:52;1001.4;;;13.16;45.35
54459;BME280;40368;49.350;8.152;2024-03-08T00:40:52;1001.3;;;13.1;45.78
54459;BME280;40368;49.350;8.152;2024-03-08T00:41:53;1001.4;;;13.07;45.96
54459;BME280;40368;49.350;8.152;2024-03-08T00:42:52;1001.4;;;13.03;45.22
54459;BME280;40368;49.350;8.152;2024-03-08T00:43:53;1001.3;;;13.02;46.01
54459;BME280;40368;49.350;8.152;2024-03-08T00:44:53;1001.3;;;12.97;45.33
54459;BME280;40368;49.350;8.152;2024-03-08T00:45:52;1001.3;;;12.92;45.48
54459;BME280;40368;49.350;8.152;2024-03-08T00:46:52;1001.3;;;12.85;45.38
54459;BME280;40368;49.350;8.152;2024-03-08T00:47:53;1001.3;;;12.83;46.6
54459;BME280;40368;49.350;8.152;2024-03-08T00:48:52;1001.3;;;12.82;45.53
54459;BME280;40368;49.350;8.152;2024-03-08T00:49:52;1001.3;;;12.83;46.24
54459;BME280;40368;49.350;8.152;2024-03-08T00:50:53;1001.3;;;12.87;47.08
54459;BME280;40368;49.350;8.152;2024-03-08T00:51:52;1001.3;;;12.92;46.46
54459;BME280;40368;49.350;8.152;2024-03-08T00:52:52;1001.3;;;12.98;46.97
54459;BME280;40368;49.350;8.152;2024-03-08T00:53:52;1001.3;;;13.03;46.2
54459;BME280;40368;49.350;8.152;2024-03-08T00:54:53;1001.3;;;13.05;44.95
54459;BME280;40368;49.350;8.152;2024-03-08T00:55:52;1001.3;;;13.04;45.89
54459;BME280;40368;49.350;8.152;2024-03-08T00:56:53;1001.2;;;13.04;45.8
54459;BME280;40368;49.350;8.152;2024-03-08T00:57:53;1001.2;;;13.05;46.35
54459;BME280;40368;49.350;8.152;2024-03-08T00:58:52;1001.2;;;13.1;45.7
54459;BME280;40368;49.350;8.152;2024-03-08T00:59:53;1001.2;;;13.1;45.43
54459;BME280;40368;49.350;8.152;2024-03-08T01:00:52;1001.2;;;13.08;45.38
54459;BME280;40368;49.350;8.152;2024-03-08T01:01:52;1001.2;;;13.02;45.43
54459;BME280;40368;49.350;8.152;2024-03-08T01:02:52;1001.2;;;12.96;45.52
54459;BME280;40368;49.350;8.152;2024-03-08T01:03:52;1001.2;;;12.92;45.19
54459;BME280;40368;49.350;8.152;2024-03-08T01:04:52;1001.2;;;12.86;44.46
54459;BME280;40368;49.350;8.152;2024-03-08T01:05:53;1001.2;;;12.84;44.92
54459;BME280;40368;49.350;8.152;2024-03-08T01:06:53;1001.2;;;12.8;45.43
54459;BME280;40368;49.350;8.152;2024-03-08T01:07:53;1001.2;;;12.78;45.81
54459;BME280;40368;49.350;8.152;2024-03-08T01:08:52;1001.2;;;12.75;45.07
54459;BME280;40368;49.350;8.152;2024-03-08T01:09:52;1001.2;;;12.72;45.55
54459;BME280;40368;49.350;8.152;2024-03-08T01:10:52;1001.2;;;12.7;46.12
54459;BME280;40368;49.350;8.152;2024-03-08T01:11:52;1001.1;;;12.61;44.38
54459;BME280;40368;49.350;8.152;2024-03-08T01:12:53;1001.1;;;12.49;45.89
54459;BME280;40368;49.350;8.152;2024-03-08T01:13:52;1001.1;;;12.48;46.15
54459;BME280;40368;49.350;8.152;2024-03-08T01:14:52;1001.1;;;12.48;46.15
54459;BME280;40368;49.350;8.152;2024-03-08T01:15:53;1001;;;12.47;45.64
54459;BME280;40368;49.350;8.152;2024-03-08T01:16:53;1001.1;;;12.45;46.37
54459;BME280;40368;49.350;8.152;2024-03-08T01:17:53;1001.1;;;12.43;46.1
54459;BME280;40368;49.350;8.152;2024-03-08T01:18:52;1001;;;12.42;45.75
54459;BME280;40368;49.350;8.152;2024-03-08T01:19:53;1001.1;;;12.39;46.44
54459;BME280;40368;49.350;8.152;2024-03-08T01:20:52;1001;;;12.37;45.97
54459;BME280;40368;49.350;8.152;2024-03-08T01:21:53;1001;;;12.33;46.2
54459;BME280;40368;49.350;8.152;2024-03-08T01:22:53;1001;;;12.3;46.12
54459;BME280;40368;49.350;8.152;2024-03-08T01:23:52;1001;;;12.29;46.47
54459;BME280;40368;49.350;8.152;2024-03-08T01:24:52;1001;;;12.29;45.44
54459;BME280;40368;49.350;8.152;2024-03-08T01:25:52;1000.9;;;12.32;46.47
54459;BME280;40368;49.350;8.152;2024-03-08T01:26:52;1000.9;;;12.37;46.3
54459;BME280;40368;49.350;8.152;2024-03-08T01:27:52;1000.9;;;12.43;46.43
54459;BME280;40368;49.350;8.152;2024-03-08T01:28:52;1000.9;;;12.46;46.14
54459;BME280;40368;49.350;8.152;2024-03-08T01:29:52;1000.9;;;12.46;45.01
54459;BME280;40368;49.350;8.152;2024-03-08T01:30:52;1000.9;;;12.45;45.67
54459;BME280;40368;49.350;8.152;2024-03-08T01:31:52;1000.9;;;12.45;45.07
54459;BME280;40368;49.350;8.152;2024-03-08T01:32:52;1000.9;;;12.41;45.24
54459;BME280;40368;49.350;8.152;2024-03-08T01:33:52;1000.9;;;12.39;45.41
54459;BME280;40368;49.350;8.152;2024-03-08T01:34:52;1000.9;;;12.36;45.39
54459;BME280;40368;49.350;8.152;2024-03-08T01:35:52;1000.9;;;12.3;45.21
54459;BME280;40368;49.350;8.152;2024-03-08T01:36:52;1000.9;;;12.27;45.55
54459;BME280;40368;49.350;8.152;2024-03-08T01:37:52;1000.8;;;12.26;45.85
54459;BME280;40368;49.350;8.152;2024-03-08T01:38:52;1000.8;;;12.25;44.99
54459;BME280;40368;49.350;8.152;2024-03-08T01:39:52;1000.8;;;12.25;45.51
54459;BME280;40368;49.350;8.152;2024-03-08T01:40:52;1000.8;;;12.19;45.37
54459;BME280;40368;49.350;8.152;2024-03-08T01:41:53;1000.8;;;12.16;45.27
54459;BME280;40368;49.350;8.152;2024-03-08T01:42:53;1000.8;;;12.14;45.8
54459;BME280;40368;49.350;8.152;2024-03-08T01:43:53;1000.8;;;12.14;45.83
54459;BME280;40368;49.350;8.152;2024-03-08T01:44:53;1000.8;;;12.1;45.83
54459;BME280;40368;49.350;8.152;2024-03-08T01:45:54;1000.8;;;12.07;45.37
54459;BME280;40368;49.350;8.152;2024-03-08T01:46:59;1000.8;;;12.05;45.79
54459;BME280;40368;49.350;8.152;2024-03-08T01:47:53;1000.8;;;12.03;45.56
54459;BME280;40368;49.350;8.152;2024-03-08T01:48:56;1000.8;;;12;45.55
54459;BME280;40368;49.350;8.152;2024-03-08T01:49:53;1000.7;;;11.95;45.62
54459;BME280;40368;49.350;8.152;2024-03-08T01:50:54;1000.7;;;11.86;45.45
54459;BME280;40368;49.350;8.152;2024-03-08T01:51:53;1000.7;;;11.83;46.17
54459;BME280;40368;49.350;8.152;2024-03-08T01:52:53;1000.7;;;11.82;46.26
54459;BME280;40368;49.350;8.152;2024-03-08T01:53:55;1000.7;;;11.79;46.21
54459;BME280;40368;49.350;8.152;2024-03-08T01:54:52;1000.7;;;11.79;46.79
54459;BME280;40368;49.350;8.152;2024-03-08T01:55:54;1000.7;;;11.83;46.45
54459;BME280;40368;49.350;8.152;2024-03-08T01:56:53;1000.6;;;11.81;45.91
54459;BME280;40368;49.350;8.152;2024-03-08T01:57:53;1000.6;;;11.78;46.19
54459;BME280;40368;49.350;8.152;2024-03-08T01:58:52;1000.7;;;11.74;46.31
54459;BME280;40368;49.350;8.152;2024-03-08T01:59:53;1000.6;;;11.75;46.67
54459;BME280;40368;49.350;8.152;2024-03-08T02:00:52;1000.6;;;11.79;46.29
54459;BME280;40368;49.350;8.152;2024-03-08T02:01:53;1000.6;;;11.81;46.11
54459;BME280;40368;49.350;8.152;2024-03-08T02:02:53;1000.6;;;11.81;46.17
54459;BME280;40368;49.350;8.152;2024-03-08T02:03:52;1000.6;;;11.82;46.52
54459;BME280;40368;49.350;8.152;2024-03-08T02:04:52;1000.6;;;11.87;46.58
54459;BME280;40368;49.350;8.152;2024-03-08T02:05:52;1000.6;;;11.9;45.77
54459;BME280;40368;49.350;8.152;2024-03-08T02:06:53;1000.6;;;11.91;46.37
54459;BME280;40368;49.350;8.152;2024-03-08T02:07:52;1000.6;;;11.95;45.94
54459;BME280;40368;49.350;8.152;2024-03-08T02:08:52;1000.5;;;11.93;45.68
54459;BME280;40368;49.350;8.152;2024-03-08T02:09:53;1000.5;;;11.92;46.15
54459;BME280;40368;49.350;8.152;2024-03-08T02:10:52;1000.5;;;11.94;46.06
54459;BME280;40368;49.350;8.152;2024-03-08T02:11:53;1000.5;;;11.97;45.84
54459;BME280;40368;49.350;8.152;2024-03-08T02:12:53;1000.5;;;11.98;46.34
54459;BME280;40368;49.350;8.152;2024-03-08T02:13:53;1000.5;;;11.99;45.7
54459;BME280;40368;49.350;8.152;2024-03-08T02:14:53;1000.4;;;11.96;45.48
54459;BME280;40368;49.350;8.152;2024-03-08T02:15:53;1000.4;;;11.94;45.87
54459;BME280;40368;49.350;8.152;2024-03-08T02:16:52;1000.4;;;11.92;45.5
54459;BME280;40368;49.350;8.152;2024-03-08T02:17:52;1000.4;;;11.92;45.74
54459;BME280;40368;49.350;8.152;2024-03-08T02:18:53;1000.4;;;11.9;46
54459;BME280;40368;49.350;8.152;2024-03-08T02:19:52;1000.5;;;11.88;45.56
54459;BME280;40368;49.350;8.152;2024-03-08T02:20:53;1000.4;;;11.88;46.53
54459;BME280;40368;49.350;8.152;2024-03-08T02:21:52;1000.5;;;11.86;45.44
54459;BME280;40368;49.350;8.152;2024-03-08T02:22:52;1000.4;;;11.8;45.33
54459;BME280;40368;49.350;8.152;2024-03-08T02:23:53;1000.5;;;11.73;45.46
54459;BME280;40368;49.350;8.152;2024-03-08T02:24:52;1000.4;;;11.68;45.59
54459;BME280;40368;49.350;8.152;2024-03-08T02:25:53;1000.4;;;11.64;45.99
54459;BME280;40368;49.350;8.152;2024-03-08T02:26:52;1000.4;;;11.58;46.28
54459;BME280;40368;49.350;8.152;2024-03-08T02:27:52;1000.4;;;11.58;46.87
54459;BME280;40368;49.350;8.152;2024-03-08T02:28:52;1000.4;;;11.56;46.99
54459;BME280;40368;49.350;8.152;2024-03-08T02:29:52;1000.3;;;11.59;46.31
54459;BME280;40368;49.350;8.152;2024-03-08T02:30:52;1000.3;;;11.57;45.68
54459;BME280;40368;49.350;8.152;2024-03-08T02:31:53;1000.3;;;11.49;46.04
54459;BME280;40368;49.350;8.152;2024-03-08T02:32:52;1000.3;;;11.48;46.24
54459;BME280;40368;49.350;8.152;2024-03-08T02:33:52;1000.3;;;11.5;46.74
54459;BME280;40368;49.350;8.152;2024-03-08T02:34:55;1000.3;;;11.53;46.1
54459;BME280;40368;49.350;8.152;2024-03-08T02:35:53;1000.3;;;11.57;46.57
54459;BME280;40368;49.350;8.152;2024-03-08T02:36:53;1000.3;;;11.57;46.41
54459;BME280;40368;49.350;8.152;2024-03-08T02:37:53;1000.3;;;11.62;46.47
54459;BME280;40368;49.350;8.152;2024-03-08T02:38:52;1000.3;;;11.66;46.35
54459;BME280;40368;49.350;8.152;2024-03-08T02:39:52;1000.3;;;11.69;46.07
54459;BME280;40368;49.350;8.152;2024-03-08T02:40:53;1000.3;;;11.72;45.58
54459;BME280;40368;49.350;8.152;2024-03-08T02:41:52;1000.2;;;11.74;46.28
54459;BME280;40368;49.350;8.152;2024-03-08T02:42:52;1000.3;;;11.73;45.35
54459;BME280;40368;49.350;8.152;2024-03-08T02:43:53;1000.2;;;11.76;45.51
54459;BME280;40368;49.350;8.152;2024-03-08T02:44:53;1000.2;;;11.77;45.8
54459;BME280;40368;49.350;8.152;2024-03-08T02:45:52;1000.2;;;11.78;45.62
54459;BME280;40368;49.350;8.152;2024-03-08T02:46:52;1000.2;;;11.75;45.46
54459;BME280;40368;49.350;8.152;2024-03-08T02:47:52;1000.2;;;11.75;46.2
54459;BME280;40368;49.350;8.152;2024-03-08T02:48:52;1000.2;;;11.76;45.75
54459;BME280;40368;49.350;8.152;2024-03-08T02:49:52;1000.2;;;11.71;45.43
54459;BME280;40368;49.350;8.152;2024-03-08T02:50:52;1000.2;;;11.66;45.7
54459;BME280;40368;49.350;8.152;2024-03-08T02:51:53;1000.2;;;11.63;46.16
54459;BME280;40368;49.350;8.152;2024-03-08T02:52:52;1000.3;;;11.62;45.6
54459;BME280;40368;49.350;8.152;2024-03-08T02:53:52;1000.2;;;11.58;46.62
54459;BME280;40368;49.350;8.152;2024-03-08T02:54:53;1000.2;;;11.59;46.1
54459;BME280;40368;49.350;8.152;2024-03-08T02:55:52;1000.2;;;11.6;47.12
54459;BME280;40368;49.350;8.152;2024-03-08T02:56:53;1000.2;;;11.59;45.94
54459;BME280;40368;49.350;8.152;2024-03-08T02:57:53;1000.2;;;11.53;45.73
54459;BME280;40368;49.350;8.152;2024-03-08T02:58:53;1000.2;;;11.47;45.62
54459;BME280;40368;49.350;8.152;2024-03-08T02:59:53;1000.2;;;11.42;45.78
54459;BME280;40368;49.350;8.152;2024-03-08T03:00:52;1000.1;;;11.37;45.82
54459;BME280;40368;49.350;8.152;2024-03-08T03:01:53;1000.2;;;11.32;45.91
54459;BME280;40368;49.350;8.152;2024-03-08T03:02:53;1000.2;;;11.3;47.3
54459;BME280;40368;49.350;8.152;2024-03-08T03:03:53;1000.2;;;11.29;45.96
54459;BME280;40368;49.350;8.152;2024-03-08T03:04:52;1000.1;;;11.27;46.6
54459;BME280;40368;49.350;8.152;2024-03-08T03:05:52;1000.1;;;11.25;46.58
54459;BME280;40368;49.350;8.152;2024-03-08T03:06:52;1000.1;;;11.25;46.66
54459;BME280;40368;49.350;8.152;2024-03-08T03:07:52;1000.1;;;11.3;46.82
54459;BME280;40368;49.350;8.152;2024-03-08T03:08:52;1000.1;;;11.31;45.85
54459;BME280;40368;49.350;8.152;2024-03-08T03:09:52;1000.1;;;11.39;47.18
54459;BME280;40368;49.350;8.152;2024-03-08T03:10:52;1000.1;;;11.48;46.53
54459;BME280;40368;49.350;8.152;2024-03-08T03:11:52;1000;;;11.53;46.01
54459;BME280;40368;49.350;8.152;2024-03-08T03:12:52;1000;;;11.55;46.19
54459;BME280;40368;49.350;8.152;2024-03-08T03:13:52;1000;;;11.6;46.4
54459;BME280;40368;49.350;8.152;2024-03-08T03:14:53;1000;;;11.61;46.07
54459;BME280;40368;49.350;8.152;2024-03-08T03:15:53;1000;;;11.63;46.18
54459;BME280;40368;49.350;8.152;2024-03-08T03:16:52;1000;;;11.66;45.63
54459;BME280;40368;49.350;8.152;2024-03-08T03:17:52;1000;;;11.68;46.21
54459;BME280;40368;49.350;8.152;2024-03-08T03:18:52;1000;;;11.69;45.7
54459;BME280;40368;49.350;8.152;2024-03-08T03:19:52;1000;;;11.69;45.76
54459;BME280;40368;49.350;8.152;2024-03-08T03:20:52;1000;;;11.68;45.86
54459;BME280;40368;49.350;8.152;2024-03-08T03:21:53;1000;;;11.63;44.95
54459;BME280;40368;49.350;8.152;2024-03-08T03:22:53;1000;;;11.58;45.63
54459;BME280;40368;49.350;8.152;2024-03-08T03:23:53;1000.1;;;11.56;45.88
54459;BME280;40368;49.350;8.152;2024-03-08T03:24:52;1000;;;11.56;45.42
54459;BME280;40368;49.350;8.152;2024-03-08T03:25:52;1000;;;11.55;45.19
54459;BME280;40368;49.350;8.152;2024-03-08T03:26:53;1000;;;11.53;45.28
54459;BME280;40368;49.350;8.152;2024-03-08T03:27:52;1000;;;11.52;45.93
54459;BME280;40368;49.350;8.152;2024-03-08T03:28:52;1000;;;11.47;45.94
54459;BME280;40368;49.350;8.152;2024-03-08T03:29:52;1000;;;11.43;45.77
54459;BME280;40368;49.350;8.152;2024-03-08T03:30:52;1000;;;11.37;45.53
54459;BME280;40368;49.350;8.152;2024-03-08T03:31:53;1000;;;11.33;45.67
54459;BME280;40368;49.350;8.152;2024-03-08T03:32:53;1000;;;11.3;45.95
54459;BME280;40368;49.350;8.152;2024-03-08T03:33:52;1000;;;11.28;45.63
54459;BME280;40368;49.350;8.152;2024-03-08T03:34:52;999.9;;;11.26;46.39
54459;BME280;40368;49.350;8.152;2024-03-08T03:35:52;1000;;;11.25;46.49
54459;BME280;40368;49.350;8.152;2024-03-08T03:36:53;999.9;;;11.25;46.39
54459;BME280;40368;49.350;8.152;2024-03-08T03:37:53;999.9;;;11.19;46.07
54459;BME280;40368;49.350;8.152;2024-03-08T03:38:52;999.9;;;11.16;46.28
54459;BME280;40368;49.350;8.152;2024-03-08T03:39:53;999.9;;;11.16;46.26
54459;BME280;40368;49.350;8.152;2024-03-08T03:40:52;999.9;;;11.18;46.87
54459;BME280;40368;49.350;8.152;2024-03-08T03:41:52;999.8;;;11.22;46.45
54459;BME280;40368;49.350;8.152;2024-03-08T03:42:53;999.9;;;11.26;46.53
54459;BME280;40368;49.350;8.152;2024-03-08T03:43:53;999.9;;;11.31;46.11
54459;BME280;40368;49.350;8.152;2024-03-08T03:44:52;999.9;;;11.32;45.2
54459;BME280;40368;49.350;8.152;2024-03-08T03:45:52;999.9;;;11.32;45.34
54459;BME280;40368;49.350;8.152;2024-03-08T03:46:52;999.9;;;11.31;45.99
54459;BME280;40368;49.350;8.152;2024-03-08T03:47:52;999.9;;;11.31;46.03
54459;BME280;40368;49.350;8.152;2024-03-08T03:48:52;999.9;;;11.31;45.46
54459;BME280;40368;49.350;8.152;2024-03-08T03:49:52;999.9;;;11.34;46.11
54459;BME280;40368;49.350;8.152;2024-03-08T03:50:53;999.9;;;11.38;46
54459;BME280;40368;49.350;8.152;2024-03-08T03:51:53;999.8;;;11.38;46.2
54459;BME280;40368;49.350;8.152;2024-03-08T03:52:52;999.9;;;11.42;45.63
54459;BME280;40368;49.350;8.152;2024-03-08T03:53:52;999.8;;;11.44;45.2
54459;BME280;40368;49.350;8.152;2024-03-08T03:54:53;999.8;;;11.46;45.77
54459;BME280;40368;49.350;8.152;2024-03-08T03:55:52;999.8;;;11.43;45.18
54459;BME280;40368;49.350;8.152;2024-03-08T03:56:52;999.8;;;11.39;45.23
54459;BME280;40368;49.350;8.152;2024-03-08T03:57:52;999.8;;;11.37;45.13
54459;BME280;40368;49.350;8.152;2024-03-08T03:58:53;999.8;;;11.36;45.34
54459;BME280;40368;49.350;8.152;2024-03-08T03:59:52;999.8;;;11.36;45.59
54459;BME280;40368;49.350;8.152;2024-03-08T04:00:52;999.8;;;11.33;46.16
54459;BME280;40368;49.350;8.152;2024-03-08T04:01:52;999.7;;;11.32;45.07
54459;BME280;40368;49.350;8.152;2024-03-08T04:02:52;999.7;;;11.33;45.54
54459;BME280;40368;49.350;8.152;2024-03-08T04:03:52;999.7;;;11.31;45.65
54459;BME280;40368;49.350;8.152;2024-03-08T04:04:52;999.8;;;11.25;45.06
54459;BME280;40368;49.350;8.152;2024-03-08T04:05:54;999.7;;;11.27;45.33
54459;BME280;40368;49.350;8.152;2024-03-08T04:06:53;999.7;;;11.2;45.54
54459;BME280;40368;49.350;8.152;2024-03-08T04:07:52;999.7;;;11.15;45.36
54459;BME280;40368;49.350;8.152;2024-03-08T04:08:52;999.7;;;11.1;46.09
54459;BME280;40368;49.350;8.152;2024-03-08T04:09:53;999.7;;;11.06;45.98
54459;BME280;40368;49.350;8.152;2024-03-08T04:10:52;999.7;;;10.99;45.55
54459;BME280;40368;49.350;8.152;2024-03-08T04:11:52;999.7;;;10.93;45.64
54459;BME280;40368;49.350;8.152;2024-03-08T04:12:52;999.7;;;10.93;46.92
54459;BME280;40368;49.350;8.152;2024-03-08T04:13:52;999.6;;;10.97;46.77
54459;BME280;40368;49.350;8.152;2024-03-08T04:14:52;999.6;;;11.02;46.33
54459;BME280;40368;49.350;8.152;2024-03-08T04:15:53;999.6;;;11.06;46.23
54459;BME280;40368;49.350;8.152;2024-03-08T04:16:53;999.7;;;11.08;45.75
54459;BME280;40368;49.350;8.152;2024-03-08T04:17:53;999.7;;;11.09;46.16
54459;BME280;40368;49.350;8.152;2024-03-08T04:18:53;999.7;;;11.12;45.91
54459;BME280;40368;49.350;8.152;2024-03-08T04:19:53;999.7;;;11.14;46.13
54459;BME280;40368;49.350;8.152;2024-03-08T04:20:52;999.7;;;11.16;46.24
54459;BME280;40368;49.350;8.152;2024-03-08T04:21:52;999.7;;;11.2;45.77
54459;BME280;40368;49.350;8.152;2024-03-08T04:22:52;999.7;;;11.22;45.68
54459;BME280;40368;49.350;8.152;2024-03-08T04:23:53;999.7;;;11.21;45.57
54459;BME280;40368;49.350;8.152;2024-03-08T04:24:52;999.7;;;11.25;45.86
54459;BME280;40368;49.350;8.152;2024-03-08T04:25:52;999.7;;;11.26;45.79
54459;BME280;40368;49.350;8.152;2024-03-08T04:26:52;999.6;;;11.29;45.47
54459;BME280;40368;49.350;8.152;2024-03-08T04:27:52;999.6;;;11.31;45.2
54459;BME280;40368;49.350;8.152;2024-03-08T04:28:53;999.6;;;11.3;45.26
54459;BME280;40368;49.350;8.152;2024-03-08T04:29:53;999.6;;;11.28;45.22
54459;BME280;40368;49.350;8.152;2024-03-08T04:30:52;999.6;;;11.29;46.08
54459;BME280;40368;49.350;8.152;2024-03-08T04:31:52;999.6;;;11.3;46.07
54459;BME280;40368;49.350;8.152;2024-03-08T04:32:52;999.6;;;11.3;45.57
54459;BME280;40368;49.350;8.152;2024-03-08T04:33:52;999.6;;;11.3;45.55
54459;BME280;40368;49.350;8.152;2024-03-08T04:34:52;999.6;;;11.3;45.49
54459;BME280;40368;49.350;8.152;2024-03-08T04:35:52;999.6;;;11.3;45.4
54459;BME280;40368;49.350;8.152;2024-03-08T04:36:53;999.6;;;11.24;45.34
54459;BME280;40368;49.350;8.152;2024-03-08T04:37:53;999.6;;;11.22;46.32
54459;BME280;40368;49.350;8.152;2024-03-08T04:38:52;999.6;;;11.22;45.21
54459;BME280;40368;49.350;8.152;2024-03-08T04:39:52;999.6;;;11.18;46.04
54459;BME280;40368;49.350;8.152;2024-03-08T04:40:52;999.6;;;11.16;45.33
54459;BME280;40368;49.350;8.152;2024-03-08T04:41:52;999.6;;;11.13;45.65
54459;BME280;40368;49.350;8.152;2024-03-08T04:42:52;999.6;;;11.1;45.44
54459;BME280;40368;49.350;8.152;2024-03-08T04:43:52;999.6;;;11.07;45.84
54459;BME280;40368;49.350;8.152;2024-03-08T04:44:53;999.5;;;10.98;45.78
54459;BME280;40368;49.350;8.152;2024-03-08T04:45:52;999.6;;;10.96;46.46
54459;BME280;40368;49.350;8.152;2024-03-08T04:46:52;999.5;;;10.9;45.93
54459;BME280;40368;49.350;8.152;2024-03-08T04:47:53;999.5;;;10.87;46.01
54459;BME280;40368;49.350;8.152;2024-03-08T04:48:52;999.4;;;10.83;45.97
54459;BME280;40368;49.350;8.152;2024-03-08T04:49:52;999.5;;;10.84;46.65
54459;BME280;40368;49.350;8.152;2024-03-08T04:50:53;999.5;;;10.84;45.6
54459;BME280;40368;49.350;8.152;2024-03-08T04:51:53;999.5;;;10.85;46.4
54459;BME280;40368;49.350;8.152;2024-03-08T04:52:53;999.5;;;10.83;46.25
54459;BME280;40368;49.350;8.152;2024-03-08T04:53:52;999.5;;;10.85;46.02
54459;BME280;40368;49.350;8.152;2024-03-08T04:54:53;999.5;;;10.89;45.9
54459;BME280;40368;49.350;8.152;2024-03-08T04:55:52;999.5;;;10.91;46.56
54459;BME280;40368;49.350;8.152;2024-03-08T04:56:52;999.4;;;10.98;46.08
54459;BME280;40368;49.350;8.152;2024-03-08T04:57:53;999.4;;;11.02;45.88
54459;BME280;40368;49.350;8.152;2024-03-08T04:58:52;999.4;;;11.07;46
54459;BME280;40368;49.350;8.152;2024-03-08T04:59:52;999.4;;;11.1;45.54
54459;BME280;40368;49.350;8.152;2024-03-08T05:00:53;999.4;;;11.14;45.51
54459;BME280;40368;49.350;8.152;2024-03-08T05:01:52;999.4;;;11.11;44.9
54459;BME280;40368;49.350;8.152;2024-03-08T05:02:52;999.4;;;11.11;45.74
54459;BME280;40368;49.350;8.152;2024-03-08T05:03:52;999.4;;;11.13;45.47
54459;BME280;40368;49.350;8.152;2024-03-08T05:04:53;999.4;;;11.14;45.29
54459;BME280;40368;49.350;8.152;2024-03-08T05:05:52;999.4;;;11.15;45.34
54459;BME280;40368;49.350;8.152;2024-03-08T05:06:53;999.4;;;11.16;45.66
54459;BME280;40368;49.350;8.152;2024-03-08T05:07:53;999.4;;;11.16;45.75
54459;BME280;40368;49.350;8.152;2024-03-08T05:08:52;999.3;;;11.14;45.46
54459;BME280;40368;49.350;8.152;2024-03-08T05:09:52;999.3;;;11.13;45.67
54459;BME280;40368;49.350;8.152;2024-03-08T05:10:52;999.3;;;11.12;46.02
54459;BME280;40368;49.350;8.152;2024-03-08T05:11:53;999.3;;;11.15;45.42
54459;BME280;40368;49.350;8.152;2024-03-08T05:12:52;999.3;;;11.15;45.6
54459;BME280;40368;49.350;8.152;2024-03-08T05:13:52;999.4;;;11.1;44.93
54459;BME280;40368;49.350;8.152;2024-03-08T05:14:53;999.3;;;11.04;45.34
54459;BME280;40368;49.350;8.152;2024-03-08T05:15:53;999.3;;;10.99;45.76
54459;BME280;40368;49.350;8.152;2024-03-08T05:16:52;999.3;;;10.97;45.7
54459;BME280;40368;49.350;8.152;2024-03-08T05:17:52;999.3;;;10.92;45.52
54459;BME280;40368;49.350;8.152;2024-03-08T05:18:53;999.3;;;10.89;46.33
54459;BME280;40368;49.350;8.152;2024-03-08T05:19:53;999.3;;;10.82;45.08
54459;BME280;40368;49.350;8.152;2024-03-08T05:20:52;999.3;;;10.74;45.51
54459;BME280;40368;49.350;8.152;2024-03-08T05:21:52;999.3;;;10.71;46.18
54459;BME280;40368;49.350;8.152;2024-03-08T05:22:52;999.3;;;10.66;45.67
54459;BME280;40368;49.350;8.152;2024-03-08T05:23:53;999.3;;;10.66;46.32
54459;BME280;40368;49.350;8.152;2024-03-08T05:24:52;999.3;;;10.66;46.3
54459;BME280;40368;49.350;8.152;2024-03-08T05:25:52;999.3;;;10.68;46.39
54459;BME280;40368;49.350;8.152;2024-03-08T05:26:52;999.3;;;10.76;46.01
54459;BME280;40368;49.350;8.152;2024-03-08T05:27:53;999.3;;;10.82;46.28
54459;BME280;40368;49.350;8.152;2024-03-08T05:28:52;999.3;;;10.83;45.73
54459;BME280;40368;49.350;8.152;2024-03-08T05:29:52;999.3;;;10.85;46.09